Time;durP1;ratioP1;P1;durP2;ratioP2;P2;SDS_P1;SDS_P2;PMS_P1;PMS_P2;Temp;Humidity;BMP_temperature;BMP_pressure;BME280_temperature;BME280_humidity;BME280_pressure;Samples;Min_cycle;Max_cycle;Signal;HPM_P1;HPM_P2
2021/10/25 00:00:31;;;;;;;1.15;0.40;;;26.20;46.80;;;;;;5084918;28;20047;-72
2021/10/25 00:02:59;;;;;;;1.13;0.10;;;26.10;46.80;;;;;;5088763;28;20016;-72
2021/10/25 00:05:27;;;;;;;1.17;0.20;;;26.00;47.70;;;;;;5083741;28;20062;-76
2021/10/25 00:07:55;;;;;;;1.33;0.20;;;25.60;47.70;;;;;;5061133;28;20475;-71
2021/10/25 00:10:22;;;;;;;5.20;0.85;;;25.80;48.50;;;;;;5083136;28;20032;-74
2021/10/25 00:12:50;;;;;;;1.48;0.28;;;26.40;49.80;;;;;;5082113;28;20032;-72
2021/10/25 00:15:18;;;;;;;1.45;0.20;;;26.60;50.60;;;;;;5079041;28;20036;-73
2021/10/25 00:17:45;;;;;;;1.25;0.30;;;26.70;45.80;;;;;;5077996;28;20501;-73
2021/10/25 00:20:13;;;;;;;1.58;0.25;;;26.50;48.20;;;;;;5076545;28;20119;-73
2021/10/25 00:22:41;;;;;;;1.25;0.20;;;26.50;46.50;;;;;;5086091;28;20020;-72
2021/10/25 00:25:09;;;;;;;1.13;0.32;;;26.70;48.80;;;;;;5083649;28;20024;-72
2021/10/25 00:27:37;;;;;;;1.23;0.10;;;27.00;48.20;;;;;;5087711;28;20028;-72
2021/10/25 00:30:06;;;;;;;1.02;0.30;;;27.20;48.80;;;;;;5075246;28;20028;-71
2021/10/25 00:32:34;;;;;;;1.73;0.28;;;27.50;50.30;;;;;;5083021;28;20051;-73
2021/10/25 00:35:01;;;;;;;0.55;0.20;;;27.70;48.80;;;;;;5073431;28;20044;-71
2021/10/25 00:37:29;;;;;;;2.10;0.20;;;27.70;45.90;;;;;;5079970;28;20053;-73
2021/10/25 00:39:59;;;;;;;1.52;0.32;;;27.50;45.50;;;;;;5079365;28;20510;-72
2021/10/25 00:42:27;;;;;;;1.33;0.43;;;27.40;47.10;;;;;;5079919;28;20394;-70
2021/10/25 00:44:54;;;;;;;3.63;0.28;;;27.40;49.20;;;;;;5079356;28;20039;-73
2021/10/25 00:47:21;;;;;;;1.92;0.45;;;27.20;47.70;;;;;;5080521;28;20020;-75
2021/10/25 00:49:49;;;;;;;5.38;0.57;;;27.30;48.60;;;;;;5086822;28;20565;-72
2021/10/25 00:52:18;;;;;;;0.68;0.20;;;27.20;44.50;;;;;;5076638;28;20030;-75
2021/10/25 00:54:46;;;;;;;3.00;0.28;;;27.30;47.80;;;;;;5077909;28;20051;-72
2021/10/25 00:57:13;;;;;;;1.40;0.20;;;27.50;50.40;;;;;;5078371;28;20040;-76
2021/10/25 00:59:41;;;;;;;1.83;0.93;;;27.80;48.00;;;;;;5078653;28;20020;-75
2021/10/25 01:02:08;;;;;;;0.40;0.20;;;27.80;47.80;;;;;;5081780;28;20129;-73
2021/10/25 01:04:36;;;;;;;2.95;0.77;;;27.80;45.40;;;;;;5075526;28;20055;-70
2021/10/25 01:07:03;;;;;;;1.75;0.28;;;27.80;47.30;;;;;;5079414;28;20069;-72
2021/10/25 01:09:31;;;;;;;1.92;0.95;;;27.90;49.20;;;;;;5079610;28;20027;-75
2021/10/25 01:11:59;;;;;;;1.80;0.30;;;27.90;45.30;;;;;;5077597;28;20711;-71
2021/10/25 01:14:27;;;;;;;2.00;0.40;;;28.10;49.20;;;;;;5075680;28;20036;-74
2021/10/25 01:16:54;;;;;;;1.70;0.38;;;28.20;46.60;;;;;;5079983;28;20035;-74
2021/10/25 01:19:22;;;;;;;0.98;0.50;;;28.30;46.20;;;;;;5063054;28;20035;-74
2021/10/25 01:21:49;;;;;;;1.27;0.30;;;28.30;46.20;;;;;;5078432;28;20571;-71
2021/10/25 01:24:17;;;;;;;1.27;0.10;;;28.50;48.80;;;;;;5080138;28;20024;-72
2021/10/25 01:26:44;;;;;;;0.82;0.20;;;28.50;45.40;;;;;;5075194;28;20020;-72
2021/10/25 01:29:12;;;;;;;4.20;0.50;;;28.60;46.20;;;;;;5077449;28;20024;-71
2021/10/25 01:31:39;;;;;;;0.75;0.30;;;28.70;46.30;;;;;;5081877;28;20130;-72
2021/10/25 01:34:07;;;;;;;2.95;0.40;;;28.60;47.10;;;;;;5084155;28;20029;-72
2021/10/25 01:36:34;;;;;;;0.95;0.25;;;28.80;45.80;;;;;;5076318;28;20089;-71
2021/10/25 01:39:01;;;;;;;1.17;0.13;;;29.00;47.10;;;;;;5058111;28;20423;-71
2021/10/25 01:41:29;;;;;;;1.98;0.38;;;28.80;45.10;;;;;;5082490;28;20032;-71
2021/10/25 01:43:56;;;;;;;1.30;0.30;;;28.90;45.50;;;;;;5076977;28;20020;-73
2021/10/25 01:46:23;;;;;;;1.00;0.20;;;28.90;43.20;;;;;;5077406;28;20039;-69
2021/10/25 01:48:51;;;;;;;1.45;0.45;;;28.70;44.10;;;;;;5083551;28;20398;-70
2021/10/25 01:51:18;;;;;;;1.70;0.60;;;28.70;45.60;;;;;;5085696;28;20546;-70
2021/10/25 01:53:49;;;;;;;2.00;0.40;;;29.00;46.40;;;;;;5089158;28;20023;-73
2021/10/25 01:56:16;;;;;;;3.17;0.43;;;29.40;49.10;;;;;;5080217;28;20031;-69
2021/10/25 01:58:44;;;;;;;2.25;0.77;;;29.10;42.80;;;;;;5082040;28;20043;-70
2021/10/25 02:01:17;;;;;;;2.30;0.35;;;29.00;48.50;;;;;;5078839;28;20410;-70
2021/10/25 02:03:44;;;;;;;1.50;0.30;;;29.40;46.40;;;;;;5087345;28;20597;-70
2021/10/25 02:06:12;;;;;;;1.23;0.20;;;29.80;46.80;;;;;;5079497;28;20502;-68
2021/10/25 02:08:39;;;;;;;1.42;0.38;;;29.70;44.30;;;;;;5090195;28;20364;-69
2021/10/25 02:11:07;;;;;;;2.55;0.77;;;29.70;47.30;;;;;;5080708;28;20052;-71
2021/10/25 02:13:35;;;;;;;3.33;0.40;;;29.20;42.70;;;;;;5090250;28;20059;-75
2021/10/25 02:16:02;;;;;;;1.90;0.30;;;29.00;41.90;;;;;;5091612;28;20036;-74
2021/10/25 02:18:30;;;;;;;2.30;0.50;;;28.70;42.80;;;;;;5094205;28;20212;-72
2021/10/25 02:20:57;;;;;;;2.92;0.73;;;28.30;43.40;;;;;;5091452;28;20382;-72
2021/10/25 02:23:24;;;;;;;3.80;0.50;;;28.30;42.10;;;;;;5079547;28;20022;-73
2021/10/25 02:25:53;;;;;;;1.10;0.35;;;28.40;44.90;;;;;;5079226;28;20104;-73
2021/10/25 02:28:22;;;;;;;0.85;0.38;;;28.60;43.10;;;;;;5079542;28;20343;-74
2021/10/25 02:30:52;;;;;;;2.65;0.35;;;29.00;46.30;;;;;;5076214;28;20432;-73
2021/10/25 02:33:21;;;;;;;1.73;0.15;;;29.30;43.40;;;;;;5089875;28;20048;-75
2021/10/25 02:35:49;;;;;;;2.75;0.45;;;29.50;44.20;;;;;;5068733;28;20402;-74
2021/10/25 02:38:17;;;;;;;1.00;0.20;;;29.70;43.70;;;;;;5080533;28;20740;-72
2021/10/25 02:40:46;;;;;;;1.02;0.30;;;30.00;46.40;;;;;;5089377;28;20162;-74
2021/10/25 02:43:13;;;;;;;0.70;0.20;;;30.40;46.40;;;;;;5088191;28;20081;-74
2021/10/25 02:45:41;;;;;;;1.67;0.38;;;30.60;42.90;;;;;;5063137;28;20500;-74
2021/10/25 02:48:10;;;;;;;2.92;0.40;;;30.30;39.50;;;;;;5094825;28;20031;-73
2021/10/25 02:50:39;;;;;;;1.52;0.20;;;30.10;45.50;;;;;;5090271;28;22368;-72
2021/10/25 02:53:09;;;;;;;2.65;0.40;;;30.00;41.80;;;;;;5093533;28;20024;-76
2021/10/25 02:55:37;;;;;;;0.52;0.20;;;29.60;40.80;;;;;;5089865;28;20756;-73
2021/10/25 02:58:04;;;;;;;1.30;0.30;;;29.90;46.00;;;;;;5080809;28;20459;-74
2021/10/25 03:00:32;;;;;;;0.80;0.25;;;29.90;42.40;;;;;;5086531;28;20494;-74
2021/10/25 03:02:59;;;;;;;0.57;0.40;;;29.80;40.30;;;;;;5083126;28;20494;-70
2021/10/25 03:05:27;;;;;;;1.13;0.47;;;29.80;44.50;;;;;;5074118;28;20073;-73
2021/10/25 03:07:54;;;;;;;1.75;0.35;;;29.80;41.90;;;;;;5084090;28;20032;-73
2021/10/25 03:10:21;;;;;;;3.17;0.77;;;29.70;42.30;;;;;;5081562;28;20050;-73
2021/10/25 03:12:49;;;;;;;4.03;1.13;;;29.50;40.70;;;;;;5083078;28;20027;-71
2021/10/25 03:15:17;;;;;;;1.30;0.50;;;28.90;42.00;;;;;;5080373;28;20028;-72
2021/10/25 03:17:45;;;;;;;1.67;0.50;;;29.10;42.90;;;;;;5080059;28;20108;-73
2021/10/25 03:20:13;;;;;;;1.00;0.20;;;29.50;42.70;;;;;;5081924;28;20028;-73
2021/10/25 03:22:41;;;;;;;0.60;0.20;;;29.50;44.30;;;;;;5084775;28;20029;-74
2021/10/25 03:25:10;;;;;;;3.47;0.30;;;29.70;43.80;;;;;;5083406;28;20016;-77
2021/10/25 03:27:39;;;;;;;2.38;0.65;;;29.90;41.40;;;;;;5077083;28;20474;-75
2021/10/25 03:30:08;;;;;;;1.00;0.20;;;30.00;40.60;;;;;;5063809;28;20020;-73
2021/10/25 03:32:35;;;;;;;3.05;0.32;;;29.60;39.00;;;;;;5079351;28;20062;-76
2021/10/25 03:35:03;;;;;;;0.63;0.22;;;29.30;40.30;;;;;;5080258;28;20621;-74
2021/10/25 03:37:33;;;;;;;1.00;0.45;;;28.90;41.80;;;;;;5077994;28;20082;-73
2021/10/25 03:40:02;;;;;;;2.17;0.20;;;29.10;41.90;;;;;;5079959;28;20051;-69
2021/10/25 03:42:33;;;;;;;0.88;0.20;;;29.30;42.20;;;;;;5077811;28;20028;-74
2021/10/25 03:47:35;;;;;;;2.75;0.40;;;29.70;43.40;;;;;;5086772;28;20094;-70
2021/10/25 03:50:13;;;;;;;1.23;0.30;;;29.60;41.70;;;;;;5080653;28;20043;-73
2021/10/25 03:55:17;;;;;;;0.95;0.30;;;29.40;40.80;;;;;;5077287;28;20051;-74
2021/10/25 04:28:05;;;;;;;3.83;0.28;;;29.40;42.60;;;;;;5081358;28;20031;-72
2021/10/25 04:30:41;;;;;;;1.15;0.20;;;29.30;41.90;;;;;;5072933;28;20032;-73
2021/10/25 04:33:09;;;;;;;0.90;0.20;;;29.30;42.50;;;;;;5058602;28;20044;-72
2021/10/25 04:35:36;;;;;;;3.65;0.50;;;29.30;42.80;;;;;;5056180;28;20040;-73
2021/10/25 04:38:04;;;;;;;0.47;0.20;;;29.50;42.90;;;;;;5060631;28;20032;-73
2021/10/25 04:40:31;;;;;;;0.73;0.20;;;29.40;40.60;;;;;;5056992;28;20025;-72
2021/10/25 04:42:59;;;;;;;0.45;0.38;;;29.20;41.10;;;;;;5059747;28;20050;-68
2021/10/25 04:45:26;;;;;;;0.65;0.25;;;28.60;38.70;;;;;;5061704;28;20032;-71
2021/10/25 04:47:54;;;;;;;0.65;0.20;;;28.60;40.90;;;;;;5063379;28;20026;-73
2021/10/25 04:50:22;;;;;;;1.50;0.38;;;28.50;41.20;;;;;;5062123;28;20021;-71
2021/10/25 04:52:50;;;;;;;0.50;0.30;;;28.50;41.00;;;;;;5060245;28;20025;-72
2021/10/25 04:55:19;;;;;;;3.47;0.70;;;28.20;40.90;;;;;;5057090;28;20036;-73
2021/10/25 04:57:46;;;;;;;1.63;0.50;;;27.70;48.00;;;;;;5058853;28;20447;-70
2021/10/25 05:00:14;;;;;;;3.42;0.85;;;27.20;49.40;;;;;;5060489;28;20147;-73
2021/10/25 05:02:41;;;;;;;4.63;0.88;;;27.00;50.50;;;;;;5056981;28;20032;-69
2021/10/25 05:05:09;;;;;;;3.00;0.45;;;26.80;50.70;;;;;;5057080;28;20037;-71
2021/10/25 05:07:37;;;;;;;5.72;0.90;;;26.60;51.10;;;;;;5060850;28;20025;-70
2021/10/25 05:10:06;;;;;;;3.88;0.60;;;26.40;51.50;;;;;;5063295;28;20035;-75
2021/10/25 05:12:33;;;;;;;2.90;1.30;;;26.10;51.60;;;;;;5059267;28;20020;-74
2021/10/25 05:15:01;;;;;;;6.07;0.85;;;25.90;52.90;;;;;;5059425;28;20029;-75
2021/10/25 05:17:28;;;;;;;6.72;1.20;;;25.70;53.30;;;;;;5057171;28;20111;-74
2021/10/25 05:19:56;;;;;;;4.32;0.70;;;25.30;54.20;;;;;;5058228;28;20158;-73
2021/10/25 05:22:23;;;;;;;4.93;1.15;;;25.20;54.30;;;;;;5057987;28;20033;-71
2021/10/25 05:24:51;;;;;;;2.80;0.50;;;25.20;54.80;;;;;;5051199;28;20029;-72
2021/10/25 05:27:21;;;;;;;2.33;0.70;;;25.00;54.60;;;;;;5060786;28;20554;-73
2021/10/25 05:29:48;;;;;;;5.97;0.88;;;24.90;53.80;;;;;;5056923;28;20348;-73
2021/10/25 05:32:17;;;;;;;2.35;1.00;;;24.70;54.30;;;;;;5068661;28;20127;-71
2021/10/25 05:34:45;;;;;;;4.10;1.58;;;24.60;54.70;;;;;;5080417;28;20034;-72
2021/10/25 05:37:12;;;;;;;5.38;1.65;;;24.60;55.20;;;;;;5081393;28;20044;-73
2021/10/25 05:39:40;;;;;;;5.97;2.05;;;24.60;55.20;;;;;;5085688;28;20039;-73
2021/10/25 05:42:09;;;;;;;6.47;1.88;;;24.60;55.70;;;;;;5084505;28;20097;-69
2021/10/25 05:44:37;;;;;;;4.47;1.52;;;24.40;55.40;;;;;;5088714;28;20462;-71
2021/10/25 05:47:06;;;;;;;3.45;0.98;;;24.20;55.90;;;;;;5082118;28;20746;-72
2021/10/25 05:49:34;;;;;;;3.00;0.73;;;24.10;57.20;;;;;;5085842;28;20032;-70
2021/10/25 05:52:01;;;;;;;3.25;0.60;;;24.00;58.20;;;;;;5083967;28;20020;-70
2021/10/25 05:54:29;;;;;;;1.67;0.73;;;23.90;59.20;;;;;;5085144;28;20026;-71
2021/10/25 05:56:56;;;;;;;13.60;1.58;;;23.80;60.00;;;;;;5082741;28;20035;-71
2021/10/25 05:59:27;;;;;;;6.28;0.70;;;23.70;59.80;;;;;;5085324;28;20024;-71
2021/10/25 06:02:23;;;;;;;3.05;0.95;;;23.70;59.40;;;;;;5085000;28;20094;-69
2021/10/25 06:04:44;;;;;;;5.68;0.60;;;23.40;58.90;;;;;;5082753;28;20061;-71
2021/10/25 06:07:12;;;;;;;1.77;0.63;;;23.40;59.70;;;;;;5077894;28;20103;-70
2021/10/25 06:09:39;;;;;;;4.15;0.60;;;23.20;61.30;;;;;;5084767;28;20023;-72
2021/10/25 06:12:12;;;;;;;3.72;0.60;;;23.20;62.90;;;;;;5083213;28;20020;-72
2021/10/25 06:14:43;;;;;;;6.13;0.88;;;23.10;62.90;;;;;;5085110;28;20019;-72
2021/10/25 06:19:50;;;;;;;8.15;1.23;;;22.80;64.20;;;;;;5085620;28;20020;-71
2021/10/25 06:22:21;;;;;;;3.85;0.40;;;22.90;64.70;;;;;;5082593;28;20028;-70
2021/10/25 06:24:49;;;;;;;3.50;0.70;;;22.90;64.30;;;;;;5085886;28;20054;-69
2021/10/25 06:27:17;;;;;;;3.28;0.60;;;22.80;64.90;;;;;;5085663;28;20028;-71
2021/10/25 06:29:44;;;;;;;4.93;1.10;;;22.60;65.00;;;;;;5085177;28;20047;-70
2021/10/25 06:32:12;;;;;;;5.35;0.70;;;22.40;65.90;;;;;;5082893;28;20518;-73
2021/10/25 06:34:42;;;;;;;3.63;0.93;;;22.20;65.20;;;;;;5084413;28;20040;-70
2021/10/25 06:37:13;;;;;;;2.78;0.55;;;22.00;65.80;;;;;;5081788;28;20027;-70
2021/10/25 06:39:43;;;;;;;4.22;0.75;;;22.00;66.20;;;;;;5086125;28;20360;-70
2021/10/25 06:42:11;;;;;;;4.85;1.45;;;21.90;65.70;;;;;;5087343;28;20048;-72
2021/10/25 06:44:50;;;;;;;4.63;1.65;;;21.80;66.30;;;;;;5086543;28;20028;-71
2021/10/25 06:47:18;;;;;;;4.40;0.80;;;21.80;66.90;;;;;;5086339;28;20040;-68
2021/10/25 06:49:45;;;;;;;2.42;0.80;;;21.70;67.60;;;;;;5083649;28;20024;-70
2021/10/25 06:52:13;;;;;;;6.50;0.70;;;21.60;68.20;;;;;;5085954;28;20059;-72
2021/10/25 06:54:40;;;;;;;5.85;1.80;;;21.60;68.00;;;;;;5083801;28;20108;-71
2021/10/25 06:57:08;;;;;;;6.32;1.65;;;21.40;68.60;;;;;;5080537;28;20067;-72
2021/10/25 06:59:37;;;;;;;4.57;1.17;;;21.30;69.70;;;;;;5081236;28;20044;-72
2021/10/25 07:02:04;;;;;;;14.60;1.17;;;21.10;69.50;;;;;;5080988;28;20028;-72
2021/10/25 07:04:32;;;;;;;6.97;0.50;;;21.10;69.80;;;;;;5079930;28;20027;-72
2021/10/25 07:07:00;;;;;;;2.25;0.35;;;21.10;69.50;;;;;;5081210;28;20106;-71
2021/10/25 07:09:27;;;;;;;2.55;0.55;;;21.00;69.80;;;;;;5079894;28;20028;-70
2021/10/25 07:11:54;;;;;;;1.92;0.57;;;21.00;70.10;;;;;;5079181;28;20038;-72
2021/10/25 07:14:27;;;;;;;4.30;1.23;;;20.80;70.40;;;;;;5080078;28;20108;-71
2021/10/25 07:17:05;;;;;;;2.50;0.90;;;20.80;70.30;;;;;;5074551;28;20039;-71
2021/10/25 08:06:09;;;;;;;2.58;0.73;;;19.00;82.30;;;;;;5039293;28;22203;-70
2021/10/25 08:11:31;;;;;;;3.75;0.60;;;18.90;83.70;;;;;;5067249;28;20737;-74
2021/10/25 08:14:04;;;;;;;2.75;0.90;;;18.80;84.30;;;;;;5080338;28;20016;-71
2021/10/25 08:16:43;;;;;;;3.33;1.13;;;18.70;84.80;;;;;;5090665;28;20085;-70
2021/10/25 08:19:25;;;;;;;2.30;0.60;;;18.70;85.80;;;;;;5091741;28;20024;-71
2021/10/25 08:21:57;;;;;;;4.68;1.17;;;18.60;87.30;;;;;;5088794;28;20475;-71
2021/10/25 08:24:26;;;;;;;2.15;0.40;;;18.50;88.90;;;;;;5086360;28;20020;-70
2021/10/25 08:26:53;;;;;;;4.22;0.98;;;18.40;90.00;;;;;;5082119;28;20028;-72
2021/10/25 08:29:22;;;;;;;3.05;0.50;;;18.40;90.40;;;;;;5081199;28;20020;-71
2021/10/25 08:35:01;;;;;;;2.60;0.80;;;18.30;91.40;;;;;;5090296;28;20103;-71
2021/10/25 08:40:02;;;;;;;4.82;0.75;;;18.20;91.70;;;;;;5090751;28;20513;-72
2021/10/25 08:42:39;;;;;;;2.20;0.75;;;18.10;91.90;;;;;;5090367;28;20085;-70
2021/10/25 08:45:17;;;;;;;3.33;0.80;;;18.00;92.50;;;;;;5091611;28;20020;-74
2021/10/25 08:47:48;;;;;;;5.80;0.68;;;17.90;93.10;;;;;;5090609;28;20036;-70
2021/10/25 08:50:19;;;;;;;4.13;0.93;;;17.80;93.00;;;;;;5074467;28;20042;-70
2021/10/25 08:52:47;;;;;;;7.43;0.80;;;17.80;93.40;;;;;;5091362;28;20034;-71
2021/10/25 08:55:18;;;;;;;4.07;0.98;;;17.70;93.70;;;;;;5075009;28;20062;-71
2021/10/25 08:57:48;;;;;;;0.60;0.40;;;17.70;94.20;;;;;;5075110;28;20083;-71
2021/10/25 09:00:21;;;;;;;1.00;0.52;;;17.60;94.10;;;;;;5049027;28;20036;-71
2021/10/25 09:02:59;;;;;;;4.25;0.63;;;17.60;94.40;;;;;;5062965;28;20125;-71
2021/10/25 09:05:27;;;;;;;4.90;0.98;;;17.60;94.60;;;;;;5073678;28;20127;-71
2021/10/25 09:08:02;;;;;;;3.78;0.90;;;17.60;94.90;;;;;;5086884;28;20024;-70
2021/10/25 09:10:37;;;;;;;2.15;0.80;;;17.60;95.00;;;;;;5058622;28;20070;-71
2021/10/25 09:13:20;;;;;;;8.77;1.13;;;17.50;95.10;;;;;;5071455;28;20032;-73
2021/10/25 09:16:03;;;;;;;4.13;0.80;;;17.50;95.40;;;;;;5074142;28;20488;-71
2021/10/25 09:18:37;;;;;;;4.20;1.35;;;17.50;95.70;;;;;;5089706;28;20028;-72
2021/10/25 09:21:09;;;;;;;2.22;1.02;;;17.40;95.80;;;;;;5086248;28;20028;-70
2021/10/25 09:23:42;;;;;;;3.20;0.73;;;17.40;96.10;;;;;;5090561;28;20034;-71
2021/10/25 09:26:25;;;;;;;3.97;0.60;;;17.30;96.30;;;;;;5080798;28;20115;-70
2021/10/25 09:28:56;;;;;;;5.55;1.35;;;17.20;96.60;;;;;;5086770;28;20028;-72
2021/10/25 09:31:29;;;;;;;3.05;1.10;;;17.20;96.90;;;;;;5087833;28;20044;-72
2021/10/25 09:34:01;;;;;;;2.75;0.85;;;17.20;97.40;;;;;;5086776;28;20028;-69
2021/10/25 09:36:41;;;;;;;3.53;0.80;;;17.10;97.40;;;;;;5087773;28;20498;-72
2021/10/25 09:39:25;;;;;;;3.55;0.90;;;17.10;97.70;;;;;;5087986;28;20020;-71
2021/10/25 09:50:08;;;;;;;4.00;0.98;;;16.90;98.60;;;;;;5082713;28;20043;-71
2021/10/25 09:52:38;;;;;;;6.32;1.30;;;16.90;98.90;;;;;;5089095;28;20509;-70
2021/10/25 09:55:07;;;;;;;8.30;1.50;;;16.90;98.70;;;;;;5089146;28;20501;-71
2021/10/25 10:00:13;;;;;;;4.20;1.38;;;16.80;99.30;;;;;;5086261;28;20020;-72
2021/10/25 10:02:41;;;;;;;6.40;2.47;;;16.80;99.50;;;;;;5089582;28;20032;-71
2021/10/25 10:05:14;;;;;;;6.28;1.48;;;16.70;99.60;;;;;;5087735;28;20043;-72
2021/10/25 10:07:44;;;;;;;3.05;1.25;;;16.80;99.90;;;;;;5070839;28;20032;-71
2021/10/25 10:10:14;;;;;;;4.82;0.82;;;16.80;99.90;;;;;;5088373;28;20068;-70
2021/10/25 10:12:43;;;;;;;4.93;0.88;;;16.70;99.90;;;;;;5090300;28;20020;-71
2021/10/25 10:15:13;;;;;;;2.17;0.50;;;16.70;99.90;;;;;;5090124;28;20232;-71
2021/10/25 10:18:17;;;;;;;3.50;0.77;;;16.70;99.90;;;;;;5089918;28;20036;-71
2021/10/25 10:20:50;;;;;;;5.82;1.02;;;16.80;99.90;;;;;;5073574;28;20024;-72
2021/10/25 10:23:21;;;;;;;4.93;0.80;;;16.80;99.90;;;;;;5088954;28;20150;-70
2021/10/25 10:25:55;;;;;;;7.45;1.33;;;16.80;99.90;;;;;;5091276;28;20020;-71
2021/10/25 10:28:47;;;;;;;7.50;2.15;;;16.80;99.90;;;;;;5094516;28;20121;-71
2021/10/25 10:31:20;;;;;;;4.28;0.77;;;16.70;99.90;;;;;;5080224;28;20506;-72
2021/10/25 10:33:52;;;;;;;3.03;0.80;;;16.70;99.90;;;;;;5091414;28;20129;-72
2021/10/25 10:36:24;;;;;;;2.55;0.57;;;16.80;99.90;;;;;;5078606;28;20032;-70
2021/10/25 10:39:11;;;;;;;4.32;0.85;;;16.80;99.90;;;;;;5084295;28;20081;-72
2021/10/25 10:41:46;;;;;;;1.15;0.50;;;16.90;99.90;;;;;;5085041;28;20035;-71
2021/10/25 10:44:16;;;;;;;6.15;1.10;;;17.00;99.80;;;;;;5089638;28;20028;-69
2021/10/25 10:46:59;;;;;;;2.80;0.65;;;17.00;99.60;;;;;;5061050;28;20115;-70
2021/10/25 10:49:42;;;;;;;4.18;0.82;;;17.10;99.70;;;;;;5085488;28;20450;-71
2021/10/25 10:52:22;;;;;;;3.60;0.80;;;17.10;99.20;;;;;;5092569;28;20062;-69
2021/10/25 11:00:39;;;;;;;1.33;0.60;;;17.20;99.10;;;;;;5089608;28;20107;-70
2021/10/25 11:03:09;;;;;;;2.45;0.55;;;17.20;99.30;;;;;;5088917;28;20030;-69
2021/10/25 11:05:47;;;;;;;4.75;0.60;;;17.20;99.10;;;;;;5085131;28;20111;-69
2021/10/25 11:08:22;;;;;;;3.83;1.20;;;17.20;99.30;;;;;;5083464;28;20031;-69
2021/10/25 11:11:00;;;;;;;3.33;0.68;;;17.20;99.50;;;;;;5090431;28;20028;-70
2021/10/25 11:13:30;;;;;;;6.60;0.85;;;17.20;99.40;;;;;;5092337;28;20379;-72
2021/10/25 11:16:34;;;;;;;4.20;0.57;;;17.20;99.60;;;;;;5092115;28;20024;-70
2021/10/25 11:18:58;;;;;;;4.88;1.27;;;17.10;99.60;;;;;;5092134;28;20036;-70
2021/10/25 11:21:32;;;;;;;5.05;1.58;;;17.10;99.60;;;;;;5091569;28;20028;-70
2021/10/25 11:24:06;;;;;;;3.85;0.80;;;17.10;99.70;;;;;;5086919;28;20025;-72
2021/10/25 11:26:42;;;;;;;5.43;1.10;;;17.00;99.70;;;;;;5073904;28;20032;-70
2021/10/25 11:29:13;;;;;;;5.22;0.82;;;17.00;99.80;;;;;;5080786;28;20024;-71
2021/10/25 11:31:44;;;;;;;5.50;0.70;;;17.00;99.90;;;;;;5065399;28;20068;-70
2021/10/25 11:34:34;;;;;;;2.40;0.50;;;17.00;99.90;;;;;;5080366;28;20066;-71
2021/10/25 11:37:23;;;;;;;2.75;0.80;;;17.00;99.90;;;;;;5084624;28;20063;-70
2021/10/25 11:40:05;;;;;;;3.83;0.77;;;17.00;99.70;;;;;;5073286;28;20066;-71
2021/10/25 11:42:36;;;;;;;6.30;1.05;;;17.00;99.70;;;;;;5088318;28;20034;-70
2021/10/25 11:45:18;;;;;;;3.17;0.50;;;17.00;99.80;;;;;;5082878;28;20076;-70
2021/10/25 11:47:48;;;;;;;4.20;1.30;;;17.00;99.90;;;;;;5075521;28;20483;-68
2021/10/25 11:50:28;;;;;;;1.67;0.60;;;17.00;99.60;;;;;;5083340;28;20089;-69
2021/10/25 11:53:05;;;;;;;3.63;0.85;;;17.00;99.60;;;;;;5073459;28;20035;-72
2021/10/25 11:55:41;;;;;;;4.70;1.10;;;16.90;99.90;;;;;;5086951;28;20039;-69
2021/10/25 11:58:09;;;;;;;;;;;16.70;99.90;;;;;;5079633;28;20024;-70
2021/10/25 12:00:49;;;;;;;4.63;0.70;;;16.70;99.90;;;;;;5080818;28;19912;-71
2021/10/25 12:03:20;;;;;;;1.85;0.70;;;16.50;99.90;;;;;;5086898;28;20154;-69
2021/10/25 12:05:48;;;;;;;2.55;0.65;;;16.40;99.90;;;;;;5085162;28;20093;-70
2021/10/25 12:08:17;;;;;;;3.00;0.65;;;16.20;99.90;;;;;;5085994;28;20024;-70
2021/10/25 12:10:47;;;;;;;2.97;0.55;;;16.20;99.90;;;;;;5079867;28;20020;-70
2021/10/25 12:13:16;;;;;;;1.83;0.70;;;16.10;99.90;;;;;;5084217;28;20051;-69
2021/10/25 12:15:52;;;;;;;4.60;1.17;;;16.00;99.90;;;;;;5079317;28;20032;-70
2021/10/25 12:18:21;;;;;;;5.57;1.13;;;15.90;99.90;;;;;;5076782;28;20502;-70
2021/10/25 12:20:49;;;;;;;3.90;0.70;;;15.90;99.90;;;;;;5086838;28;20028;-71
2021/10/25 12:23:22;;;;;;;5.07;1.73;;;15.90;99.90;;;;;;5089126;28;20020;-69
2021/10/25 12:26:03;;;;;;;2.92;1.08;;;15.80;99.90;;;;;;5087862;28;20035;-70
2021/10/25 12:28:34;;;;;;;2.17;0.70;;;15.70;99.90;;;;;;5076797;28;20525;-70
2021/10/25 12:31:18;;;;;;;3.80;1.20;;;15.60;99.90;;;;;;5076820;28;20059;-70
2021/10/25 12:33:47;;;;;;;3.25;0.60;;;15.50;99.90;;;;;;5076593;28;20074;-70
2021/10/25 12:36:23;;;;;;;3.22;0.63;;;15.50;99.90;;;;;;5076926;28;20051;-70
2021/10/25 12:38:55;;;;;;;1.92;0.82;;;15.40;99.90;;;;;;5072955;28;20035;-70
2021/10/25 12:41:23;;;;;;;1.35;0.68;;;15.40;99.90;;;;;;5080985;28;20028;-69
2021/10/25 12:43:56;;;;;;;1.10;0.80;;;15.40;99.90;;;;;;5081309;28;20037;-69
2021/10/25 12:46:33;;;;;;;3.10;1.00;;;15.30;99.90;;;;;;5078652;28;20059;-68
2021/10/25 12:49:00;;;;;;;5.53;1.05;;;15.20;99.90;;;;;;5075903;28;20501;-69
2021/10/25 12:51:39;;;;;;;4.43;1.15;;;15.20;99.90;;;;;;5088145;28;20027;-69
2021/10/25 12:54:11;;;;;;;5.32;1.40;;;15.20;99.90;;;;;;5083657;28;20047;-71
2021/10/25 12:56:39;;;;;;;4.30;0.98;;;15.10;99.90;;;;;;5075939;28;20226;-69
2021/10/25 12:59:09;;;;;;;5.13;0.95;;;15.10;99.90;;;;;;5076110;28;20016;-70
2021/10/25 13:01:37;;;;;;;2.22;0.95;;;15.10;99.90;;;;;;5072742;28;20024;-71
2021/10/25 13:04:06;;;;;;;4.50;0.88;;;15.10;99.90;;;;;;5077916;28;20628;-70
2021/10/25 13:06:35;;;;;;;3.97;1.10;;;15.10;99.90;;;;;;5075329;28;20028;-70
2021/10/25 13:09:11;;;;;;;10.02;1.13;;;15.00;99.90;;;;;;5077882;28;20032;-69
2021/10/25 13:11:39;;;;;;;2.88;0.80;;;15.00;99.90;;;;;;5077458;28;20036;-69
2021/10/25 13:14:10;;;;;;;8.60;2.08;;;14.90;99.90;;;;;;5077903;28;20033;-71
2021/10/25 13:16:45;;;;;;;3.22;1.02;;;14.80;99.90;;;;;;5075112;28;20530;-71
2021/10/25 13:19:15;;;;;;;6.85;2.15;;;14.80;99.90;;;;;;5084503;28;20031;-69
2021/10/25 13:21:43;;;;;;;4.40;1.25;;;14.80;99.90;;;;;;5076426;28;20063;-70
2021/10/25 13:24:11;;;;;;;5.63;1.58;;;14.80;99.90;;;;;;5078541;28;20507;-69
2021/10/25 13:26:39;;;;;;;2.83;0.60;;;14.70;99.90;;;;;;5080654;28;20035;-71
2021/10/25 13:29:08;;;;;;;5.00;1.38;;;14.70;99.90;;;;;;5080307;28;20063;-69
2021/10/25 13:31:35;;;;;;;5.18;1.02;;;14.70;99.90;;;;;;5080385;28;20174;-69
2021/10/25 13:34:03;;;;;;;4.13;0.90;;;14.60;99.90;;;;;;5083155;28;20029;-71
2021/10/25 13:36:31;;;;;;;8.02;1.88;;;14.60;99.90;;;;;;5080068;28;20047;-72
2021/10/25 13:38:58;;;;;;;6.03;1.92;;;14.70;99.90;;;;;;5080844;28;20028;-70
2021/10/25 13:41:26;;;;;;;3.10;1.48;;;14.70;99.90;;;;;;5079953;28;20073;-72
2021/10/25 13:43:57;;;;;;;2.95;1.10;;;14.80;99.90;;;;;;5082911;28;20162;-69
2021/10/25 13:46:25;;;;;;;4.43;2.75;;;14.80;99.90;;;;;;5076196;28;20471;-71
2021/10/25 13:48:52;;;;;;;5.95;1.15;;;14.90;99.90;;;;;;5071043;28;20036;-70
2021/10/25 13:51:20;;;;;;;10.48;1.13;;;14.90;99.90;;;;;;5077959;28;20529;-70
2021/10/25 13:53:47;;;;;;;4.93;1.40;;;15.00;99.90;;;;;;5071465;28;20154;-69
2021/10/25 13:56:15;;;;;;;9.07;1.65;;;15.10;99.90;;;;;;5077039;28;20112;-70
2021/10/25 13:58:43;;;;;;;3.95;1.48;;;15.10;99.90;;;;;;5087469;28;20028;-71
2021/10/25 14:01:10;;;;;;;4.20;1.20;;;15.20;99.90;;;;;;5078704;28;20029;-70
2021/10/25 14:03:39;;;;;;;4.45;1.08;;;15.20;99.90;;;;;;5082820;28;20532;-70
2021/10/25 14:06:09;;;;;;;10.27;1.10;;;15.20;99.90;;;;;;5077649;28;20028;-72
2021/10/25 14:08:37;;;;;;;6.80;1.10;;;15.20;99.90;;;;;;5085648;28;20545;-70
2021/10/25 14:11:05;;;;;;;4.22;1.08;;;15.20;99.90;;;;;;5079520;28;20016;-69
2021/10/25 14:16:33;;;;;;;6.38;1.58;;;15.30;99.90;;;;;;5091681;28;20056;-70
2021/10/25 14:19:02;;;;;;;7.53;1.70;;;15.30;99.90;;;;;;5082530;28;20024;-70
2021/10/25 14:21:36;;;;;;;6.15;1.50;;;15.40;99.90;;;;;;5085447;28;20056;-70
2021/10/25 14:24:10;;;;;;;3.80;1.15;;;15.40;99.90;;;;;;5093312;28;20055;-71
2021/10/25 14:26:38;;;;;;;4.35;1.63;;;15.40;99.90;;;;;;5066618;28;20024;-70
2021/10/25 14:29:07;;;;;;;8.45;0.75;;;15.50;99.90;;;;;;5083101;28;20062;-70
2021/10/25 14:31:37;;;;;;;4.85;0.90;;;15.50;99.90;;;;;;5084422;28;20036;-70
2021/10/25 14:34:05;;;;;;;10.52;1.23;;;15.50;99.90;;;;;;5090929;28;20028;-70
2021/10/25 14:36:33;;;;;;;4.00;0.90;;;15.50;99.90;;;;;;5087517;28;20087;-69
2021/10/25 14:39:10;;;;;;;5.00;1.00;;;15.60;99.90;;;;;;5085610;28;20028;-70
2021/10/25 14:41:53;;;;;;;4.28;1.27;;;15.60;99.90;;;;;;5076766;28;20082;-70
2021/10/25 14:57:28;;;;;;;3.63;0.85;;;15.60;99.90;;;;;;5075135;28;20048;-70
2021/10/25 14:59:56;;;;;;;3.67;0.70;;;15.60;99.90;;;;;;5085298;28;20020;-70
2021/10/25 15:02:24;;;;;;;3.65;0.70;;;15.60;99.90;;;;;;5077354;28;20052;-70
2021/10/25 15:04:52;;;;;;;5.30;1.15;;;15.60;99.90;;;;;;5078821;28;20020;-70
2021/10/25 15:07:22;;;;;;;3.35;1.13;;;15.60;99.90;;;;;;5089847;28;20036;-70
2021/10/25 15:09:54;;;;;;;3.60;1.13;;;15.60;99.90;;;;;;5079029;28;20024;-69